sensor_id;sensor_type;location;lat;lon;timestamp;temperature;humidity
24011;DHT22;12217;50.792;4.372;2022-09-01T00:02:14;21.60;99.90
24011;DHT22;12217;50.792;4.372;2022-09-01T00:04:41;21.60;99.90
24011;DHT22;12217;50.792;4.372;2022-09-01T00:07:10;21.60;99.90
24011;DHT22;12217;50.792;4.372;2022-09-01T00:09:35;21.60;99.90
24011;DHT22;12217;50.792;4.372;2022-09-01T00:12:03;21.50;99.90
24011;DHT22;12217;50.792;4.372;2022-09-01T00:14:31;21.50;99.90
24011;DHT22;12217;50.792;4.372;2022-09-01T00:17:03;21.40;99.90
24011;DHT22;12217;50.792;4.372;2022-09-01T00:19:29;21.40;99.90
24011;DHT22;12217;50.792;4.372;2022-09-01T00:21:55;21.40;99.90
24011;DHT22;12217;50.792;4.372;2022-09-01T00:24:21;21.40;99.90
24011;DHT22;12217;50.792;4.372;2022-09-01T00:26:47;21.30;99.90
24011;DHT22;12217;50.792;4.372;2022-09-01T00:29:14;21.30;99.90
24011;DHT22;12217;50.792;4.372;2022-09-01T00:31:41;21.30;99.90
24011;DHT22;12217;50.792;4.372;2022-09-01T00:34:07;21.20;99.90
24011;DHT22;12217;50.792;4.372;2022-09-01T00:36:32;21.20;99.90
24011;DHT22;12217;50.792;4.372;2022-09-01T00:38:58;21.20;99.90
24011;DHT22;12217;50.792;4.372;2022-09-01T00:41:26;21.20;99.90
24011;DHT22;12217;50.792;4.372;2022-09-01T00:43:57;21.20;99.90
24011;DHT22;12217;50.792;4.372;2022-09-01T00:46:50;21.20;99.90
24011;DHT22;12217;50.792;4.372;2022-09-01T00:51:58;21.10;99.90
24011;DHT22;12217;50.792;4.372;2022-09-01T00:54:28;21.10;99.90
24011;DHT22;12217;50.792;4.372;2022-09-01T00:56:55;21.00;99.90
24011;DHT22;12217;50.792;4.372;2022-09-01T00:59:23;21.00;99.90
24011;DHT22;12217;50.792;4.372;2022-09-01T01:01:49;21.00;99.90
24011;DHT22;12217;50.792;4.372;2022-09-01T01:04:15;21.00;99.90
24011;DHT22;12217;50.792;4.372;2022-09-01T01:06:47;21.00;99.90
24011;DHT22;12217;50.792;4.372;2022-09-01T01:09:25;21.00;99.90
24011;DHT22;12217;50.792;4.372;2022-09-01T01:11:52;20.90;99.90
24011;DHT22;12217;50.792;4.372;2022-09-01T01:14:17;20.80;99.90
24011;DHT22;12217;50.792;4.372;2022-09-01T01:16:46;20.80;99.90
24011;DHT22;12217;50.792;4.372;2022-09-01T01:19:45;20.80;99.90
24011;DHT22;12217;50.792;4.372;2022-09-01T01:25:22;20.70;99.90
24011;DHT22;12217;50.792;4.372;2022-09-01T01:27:48;20.60;99.90
24011;DHT22;12217;50.792;4.372;2022-09-01T01:30:15;20.70;99.90
24011;DHT22;12217;50.792;4.372;2022-09-01T01:32:42;20.60;99.90
24011;DHT22;12217;50.792;4.372;2022-09-01T01:35:11;20.60;99.90
24011;DHT22;12217;50.792;4.372;2022-09-01T01:37:42;20.60;99.90
24011;DHT22;12217;50.792;4.372;2022-09-01T01:40:16;20.70;99.90
24011;DHT22;12217;50.792;4.372;2022-09-01T01:42:44;20.70;99.90
24011;DHT22;12217;50.792;4.372;2022-09-01T01:45:12;20.60;99.90
24011;DHT22;12217;50.792;4.372;2022-09-01T01:47:42;20.60;99.90
24011;DHT22;12217;50.792;4.372;2022-09-01T01:50:08;20.60;99.90
24011;DHT22;12217;50.792;4.372;2022-09-01T01:52:35;20.60;99.90
24011;DHT22;12217;50.792;4.372;2022-09-01T01:55:01;20.50;99.90
24011;DHT22;12217;50.792;4.372;2022-09-01T01:57:27;20.40;99.90
24011;DHT22;12217;50.792;4.372;2022-09-01T01:59:56;20.40;99.90
24011;DHT22;12217;50.792;4.372;2022-09-01T02:02:22;20.40;99.90
24011;DHT22;12217;50.792;4.372;2022-09-01T02:04:48;20.30;99.90
24011;DHT22;12217;50.792;4.372;2022-09-01T02:07:13;20.30;99.90
24011;DHT22;12217;50.792;4.372;2022-09-01T02:09:39;20.30;99.90
24011;DHT22;12217;50.792;4.372;2022-09-01T02:12:08;20.30;99.90
24011;DHT22;12217;50.792;4.372;2022-09-01T02:14:34;20.30;99.90
24011;DHT22;12217;50.792;4.372;2022-09-01T02:17:00;20.20;99.90
24011;DHT22;12217;50.792;4.372;2022-09-01T02:19:26;20.10;99.90
24011;DHT22;12217;50.792;4.372;2022-09-01T02:21:51;20.10;99.90
24011;DHT22;12217;50.792;4.372;2022-09-01T02:24:21;20.20;99.90
24011;DHT22;12217;50.792;4.372;2022-09-01T02:26:49;20.10;99.90
24011;DHT22;12217;50.792;4.372;2022-09-01T02:29:21;20.10;99.90
24011;DHT22;12217;50.792;4.372;2022-09-01T02:31:50;20.10;99.90
24011;DHT22;12217;50.792;4.372;2022-09-01T02:34:17;20.10;99.90
24011;DHT22;12217;50.792;4.372;2022-09-01T02:36:45;20.10;99.90
24011;DHT22;12217;50.792;4.372;2022-09-01T02:39:25;20.10;99.90
24011;DHT22;12217;50.792;4.372;2022-09-01T02:41:51;20.10;99.90
24011;DHT22;12217;50.792;4.372;2022-09-01T02:44:18;20.00;99.90
24011;DHT22;12217;50.792;4.372;2022-09-01T02:46:46;19.90;99.90
24011;DHT22;12217;50.792;4.372;2022-09-01T02:49:14;20.00;99.90
24011;DHT22;12217;50.792;4.372;2022-09-01T02:51:43;20.00;99.90
24011;DHT22;12217;50.792;4.372;2022-09-01T02:54:10;19.90;99.90
24011;DHT22;12217;50.792;4.372;2022-09-01T02:56:40;20.00;99.90
24011;DHT22;12217;50.792;4.372;2022-09-01T02:59:05;20.10;99.90
24011;DHT22;12217;50.792;4.372;2022-09-01T03:01:38;20.00;99.90
24011;DHT22;12217;50.792;4.372;2022-09-01T03:04:05;19.90;99.90
24011;DHT22;12217;50.792;4.372;2022-09-01T03:06:34;19.90;99.90
24011;DHT22;12217;50.792;4.372;2022-09-01T03:09:02;19.90;99.90
24011;DHT22;12217;50.792;4.372;2022-09-01T03:11:31;19.80;99.90
24011;DHT22;12217;50.792;4.372;2022-09-01T03:13:57;19.80;99.90
24011;DHT22;12217;50.792;4.372;2022-09-01T03:16:23;19.80;99.90
24011;DHT22;12217;50.792;4.372;2022-09-01T03:18:49;19.80;99.90
24011;DHT22;12217;50.792;4.372;2022-09-01T03:21:15;19.90;99.90
24011;DHT22;12217;50.792;4.372;2022-09-01T03:23:42;19.80;99.90
24011;DHT22;12217;50.792;4.372;2022-09-01T03:26:08;19.70;99.90
24011;DHT22;12217;50.792;4.372;2022-09-01T03:28:34;19.70;99.90
24011;DHT22;12217;50.792;4.372;2022-09-01T03:31:02;19.70;99.90
24011;DHT22;12217;50.792;4.372;2022-09-01T03:33:29;19.60;99.90
24011;DHT22;12217;50.792;4.372;2022-09-01T03:35:55;19.70;99.90
24011;DHT22;12217;50.792;4.372;2022-09-01T03:38:22;19.80;99.90
24011;DHT22;12217;50.792;4.372;2022-09-01T03:40:58;19.80;99.90
24011;DHT22;12217;50.792;4.372;2022-09-01T03:43:27;19.80;99.90
24011;DHT22;12217;50.792;4.372;2022-09-01T03:45:54;19.70;99.90
24011;DHT22;12217;50.792;4.372;2022-09-01T03:48:22;19.60;99.90
24011;DHT22;12217;50.792;4.372;2022-09-01T03:50:50;19.60;99.90
24011;DHT22;12217;50.792;4.372;2022-09-01T03:53:18;19.60;99.90
24011;DHT22;12217;50.792;4.372;2022-09-01T03:55:45;19.50;99.90
24011;DHT22;12217;50.792;4.372;2022-09-01T03:58:13;19.40;99.90
24011;DHT22;12217;50.792;4.372;2022-09-01T04:00:46;19.50;99.90
24011;DHT22;12217;50.792;4.372;2022-09-01T04:03:13;19.50;99.90
24011;DHT22;12217;50.792;4.372;2022-09-01T04:05:42;19.50;99.90
24011;DHT22;12217;50.792;4.372;2022-09-01T04:08:10;19.40;99.90
24011;DHT22;12217;50.792;4.372;2022-09-01T04:10:42;19.40;99.90
24011;DHT22;12217;50.792;4.372;2022-09-01T04:13:37;19.40;99.90
24011;DHT22;12217;50.792;4.372;2022-09-01T04:16:04;19.30;99.90
24011;DHT22;12217;50.792;4.372;2022-09-01T04:18:35;19.30;99.90
24011;DHT22;12217;50.792;4.372;2022-09-01T04:21:00;19.30;99.90
24011;DHT22;12217;50.792;4.372;2022-09-01T04:23:31;19.30;99.90
24011;DHT22;12217;50.792;4.372;2022-09-01T04:26:11;19.30;99.90
24011;DHT22;12217;50.792;4.372;2022-09-01T04:28:47;19.30;99.90
24011;DHT22;12217;50.792;4.372;2022-09-01T04:31:19;19.20;99.90
24011;DHT22;12217;50.792;4.372;2022-09-01T04:33:48;19.20;99.90
24011;DHT22;12217;50.792;4.372;2022-09-01T04:36:28;19.10;99.90
24011;DHT22;12217;50.792;4.372;2022-09-01T04:39:00;19.10;99.90
24011;DHT22;12217;50.792;4.372;2022-09-01T04:41:29;19.10;99.90
24011;DHT22;12217;50.792;4.372;2022-09-01T04:44:00;19.10;99.90
24011;DHT22;12217;50.792;4.372;2022-09-01T04:46:30;19.10;99.90
24011;DHT22;12217;50.792;4.372;2022-09-01T04:48:58;19.10;99.90
24011;DHT22;12217;50.792;4.372;2022-09-01T04:51:24;19.10;99.90
24011;DHT22;12217;50.792;4.372;2022-09-01T04:53:53;19.00;99.90
24011;DHT22;12217;50.792;4.372;2022-09-01T04:56:20;18.90;99.90
24011;DHT22;12217;50.792;4.372;2022-09-01T04:58:48;18.90;99.90
24011;DHT22;12217;50.792;4.372;2022-09-01T05:01:16;18.90;99.90
24011;DHT22;12217;50.792;4.372;2022-09-01T05:03:43;18.80;99.90
24011;DHT22;12217;50.792;4.372;2022-09-01T05:06:18;18.80;99.90
24011;DHT22;12217;50.792;4.372;2022-09-01T05:08:44;18.80;99.90
24011;DHT22;12217;50.792;4.372;2022-09-01T05:11:12;18.70;99.90
24011;DHT22;12217;50.792;4.372;2022-09-01T05:13:42;18.80;99.90
24011;DHT22;12217;50.792;4.372;2022-09-01T05:16:11;18.60;99.90
24011;DHT22;12217;50.792;4.372;2022-09-01T05:18:40;18.70;99.90
24011;DHT22;12217;50.792;4.372;2022-09-01T05:21:08;18.70;99.90
24011;DHT22;12217;50.792;4.372;2022-09-01T05:23:38;18.60;99.90
24011;DHT22;12217;50.792;4.372;2022-09-01T05:26:05;18.60;99.90
24011;DHT22;12217;50.792;4.372;2022-09-01T05:28:42;18.60;99.90
24011;DHT22;12217;50.792;4.372;2022-09-01T05:31:08;18.60;99.90
24011;DHT22;12217;50.792;4.372;2022-09-01T05:33:35;18.60;99.90
24011;DHT22;12217;50.792;4.372;2022-09-01T05:36:02;18.60;99.90
24011;DHT22;12217;50.792;4.372;2022-09-01T05:38:29;18.60;99.90
24011;DHT22;12217;50.792;4.372;2022-09-01T05:40:58;18.60;99.90
24011;DHT22;12217;50.792;4.372;2022-09-01T05:43:26;18.60;99.90
24011;DHT22;12217;50.792;4.372;2022-09-01T05:45:53;18.70;99.90
24011;DHT22;12217;50.792;4.372;2022-09-01T05:48:19;18.70;99.90
24011;DHT22;12217;50.792;4.372;2022-09-01T05:50:48;18.70;99.90
24011;DHT22;12217;50.792;4.372;2022-09-01T05:53:15;18.70;99.90
24011;DHT22;12217;50.792;4.372;2022-09-01T05:55:45;18.70;99.90
24011;DHT22;12217;50.792;4.372;2022-09-01T05:58:12;18.70;99.90
24011;DHT22;12217;50.792;4.372;2022-09-01T06:00:43;18.80;99.90
24011;DHT22;12217;50.792;4.372;2022-09-01T06:03:12;18.80;99.90
24011;DHT22;12217;50.792;4.372;2022-09-01T06:05:39;18.90;99.90
24011;DHT22;12217;50.792;4.372;2022-09-01T06:08:06;18.80;99.90
24011;DHT22;12217;50.792;4.372;2022-09-01T06:10:33;18.80;99.90
24011;DHT22;12217;50.792;4.372;2022-09-01T06:13:01;18.80;99.90
24011;DHT22;12217;50.792;4.372;2022-09-01T06:15:31;18.90;99.90
24011;DHT22;12217;50.792;4.372;2022-09-01T06:17:57;18.90;99.90
24011;DHT22;12217;50.792;4.372;2022-09-01T06:20:24;18.90;99.90
24011;DHT22;12217;50.792;4.372;2022-09-01T06:22:51;18.90;99.90
24011;DHT22;12217;50.792;4.372;2022-09-01T06:25:17;19.00;99.90
24011;DHT22;12217;50.792;4.372;2022-09-01T06:27:45;19.00;99.90
24011;DHT22;12217;50.792;4.372;2022-09-01T06:30:14;18.90;99.90
24011;DHT22;12217;50.792;4.372;2022-09-01T06:32:44;18.90;99.90
24011;DHT22;12217;50.792;4.372;2022-09-01T06:35:12;19.00;99.90
24011;DHT22;12217;50.792;4.372;2022-09-01T06:37:41;19.00;99.90
24011;DHT22;12217;50.792;4.372;2022-09-01T06:40:13;19.10;99.90
24011;DHT22;12217;50.792;4.372;2022-09-01T06:42:46;19.20;99.90
24011;DHT22;12217;50.792;4.372;2022-09-01T06:45:14;19.30;99.90
24011;DHT22;12217;50.792;4.372;2022-09-01T06:47:44;19.30;99.90
24011;DHT22;12217;50.792;4.372;2022-09-01T06:50:12;19.40;99.90
24011;DHT22;12217;50.792;4.372;2022-09-01T06:52:42;19.60;99.90
24011;DHT22;12217;50.792;4.372;2022-09-01T06:55:13;19.60;99.90
24011;DHT22;12217;50.792;4.372;2022-09-01T06:57:40;19.80;99.90
24011;DHT22;12217;50.792;4.372;2022-09-01T07:00:08;19.80;99.90
24011;DHT22;12217;50.792;4.372;2022-09-01T07:02:43;19.90;99.90
24011;DHT22;12217;50.792;4.372;2022-09-01T07:05:10;19.80;99.90
24011;DHT22;12217;50.792;4.372;2022-09-01T07:07:36;20.00;99.90
24011;DHT22;12217;50.792;4.372;2022-09-01T07:10:04;20.10;99.90
24011;DHT22;12217;50.792;4.372;2022-09-01T07:12:30;20.20;99.90
24011;DHT22;12217;50.792;4.372;2022-09-01T07:14:56;20.30;99.90
24011;DHT22;12217;50.792;4.372;2022-09-01T07:17:23;20.40;99.90
24011;DHT22;12217;50.792;4.372;2022-09-01T07:19:50;20.50;99.90
24011;DHT22;12217;50.792;4.372;2022-09-01T07:22:16;20.50;99.90
24011;DHT22;12217;50.792;4.372;2022-09-01T07:24:42;20.70;99.90
24011;DHT22;12217;50.792;4.372;2022-09-01T07:27:10;20.90;99.90
24011;DHT22;12217;50.792;4.372;2022-09-01T07:29:36;21.00;99.90
24011;DHT22;12217;50.792;4.372;2022-09-01T07:32:03;21.20;99.90
24011;DHT22;12217;50.792;4.372;2022-09-01T07:34:30;21.30;99.90
24011;DHT22;12217;50.792;4.372;2022-09-01T07:36:57;21.50;99.90
24011;DHT22;12217;50.792;4.372;2022-09-01T07:39:24;21.50;99.90
24011;DHT22;12217;50.792;4.372;2022-09-01T07:41:50;21.60;99.90
24011;DHT22;12217;50.792;4.372;2022-09-01T07:44:16;21.70;99.90
24011;DHT22;12217;50.792;4.372;2022-09-01T07:46:41;22.00;99.90
24011;DHT22;12217;50.792;4.372;2022-09-01T07:49:07;22.20;99.90
24011;DHT22;12217;50.792;4.372;2022-09-01T07:51:33;22.10;99.90
24011;DHT22;12217;50.792;4.372;2022-09-01T07:53:59;22.30;99.90
24011;DHT22;12217;50.792;4.372;2022-09-01T07:56:27;22.40;99.90
24011;DHT22;12217;50.792;4.372;2022-09-01T07:58:54;22.50;99.90
24011;DHT22;12217;50.792;4.372;2022-09-01T08:01:23;22.60;99.90
24011;DHT22;12217;50.792;4.372;2022-09-01T08:03:52;22.70;99.90
24011;DHT22;12217;50.792;4.372;2022-09-01T08:06:20;22.80;99.90
24011;DHT22;12217;50.792;4.372;2022-09-01T08:08:49;22.90;99.90
24011;DHT22;12217;50.792;4.372;2022-09-01T08:11:17;23.10;99.90
24011;DHT22;12217;50.792;4.372;2022-09-01T08:13:44;23.10;99.90
24011;DHT22;12217;50.792;4.372;2022-09-01T08:16:10;23.10;99.90
24011;DHT22;12217;50.792;4.372;2022-09-01T08:18:36;23.30;99.90
24011;DHT22;12217;50.792;4.372;2022-09-01T08:21:10;23.30;99.90
24011;DHT22;12217;50.792;4.372;2022-09-01T08:23:37;23.30;99.90
24011;DHT22;12217;50.792;4.372;2022-09-01T08:26:11;23.30;99.90
24011;DHT22;12217;50.792;4.372;2022-09-01T08:28:37;23.50;99.90
24011;DHT22;12217;50.792;4.372;2022-09-01T08:31:11;23.60;99.90
24011;DHT22;12217;50.792;4.372;2022-09-01T08:33:38;23.70;99.90
24011;DHT22;12217;50.792;4.372;2022-09-01T08:36:07;23.80;99.90
24011;DHT22;12217;50.792;4.372;2022-09-01T08:38:33;24.00;99.90
24011;DHT22;12217;50.792;4.372;2022-09-01T08:40:59;23.90;99.90
24011;DHT22;12217;50.792;4.372;2022-09-01T08:43:43;24.20;99.90
24011;DHT22;12217;50.792;4.372;2022-09-01T08:46:37;24.20;99.90
24011;DHT22;12217;50.792;4.372;2022-09-01T08:51:53;24.40;99.90
24011;DHT22;12217;50.792;4.372;2022-09-01T08:57:20;24.40;99.90
24011;DHT22;12217;50.792;4.372;2022-09-01T08:59:47;24.50;99.90
24011;DHT22;12217;50.792;4.372;2022-09-01T09:02:20;24.50;99.90
24011;DHT22;12217;50.792;4.372;2022-09-01T09:10:58;24.60;99.90
24011;DHT22;12217;50.792;4.372;2022-09-01T09:13:56;24.90;99.90
24011;DHT22;12217;50.792;4.372;2022-09-01T09:16:46;25.10;99.90
24011;DHT22;12217;50.792;4.372;2022-09-01T09:21:47;25.30;99.90
24011;DHT22;12217;50.792;4.372;2022-09-01T09:24:29;25.30;99.90
24011;DHT22;12217;50.792;4.372;2022-09-01T09:27:33;25.40;99.90
24011;DHT22;12217;50.792;4.372;2022-09-01T09:32:49;25.90;99.90
24011;DHT22;12217;50.792;4.372;2022-09-01T09:35:29;26.00;99.90
24011;DHT22;12217;50.792;4.372;2022-09-01T09:43:34;26.20;99.90
24011;DHT22;12217;50.792;4.372;2022-09-01T09:49:31;26.40;99.90
24011;DHT22;12217;50.792;4.372;2022-09-01T09:52:13;26.70;99.90
24011;DHT22;12217;50.792;4.372;2022-09-01T09:55:00;27.00;99.00
24011;DHT22;12217;50.792;4.372;2022-09-01T09:57:28;27.20;97.90
24011;DHT22;12217;50.792;4.372;2022-09-01T10:00:15;27.30;97.40
24011;DHT22;12217;50.792;4.372;2022-09-01T10:02:43;27.40;96.60
24011;DHT22;12217;50.792;4.372;2022-09-01T10:05:36;27.30;95.60
24011;DHT22;12217;50.792;4.372;2022-09-01T10:08:03;27.30;94.80
24011;DHT22;12217;50.792;4.372;2022-09-01T10:10:43;27.30;92.60
24011;DHT22;12217;50.792;4.372;2022-09-01T10:13:19;27.00;92.90
24011;DHT22;12217;50.792;4.372;2022-09-01T10:15:58;27.00;93.20
24011;DHT22;12217;50.792;4.372;2022-09-01T10:18:38;27.10;93.10
24011;DHT22;12217;50.792;4.372;2022-09-01T10:21:09;27.40;93.20
24011;DHT22;12217;50.792;4.372;2022-09-01T10:23:36;27.30;90.60
24011;DHT22;12217;50.792;4.372;2022-09-01T10:28:53;27.40;91.70
24011;DHT22;12217;50.792;4.372;2022-09-01T10:31:21;27.50;90.30
24011;DHT22;12217;50.792;4.372;2022-09-01T10:33:47;27.70;89.90
24011;DHT22;12217;50.792;4.372;2022-09-01T10:36:15;27.80;89.40
24011;DHT22;12217;50.792;4.372;2022-09-01T10:38:41;27.70;87.60
24011;DHT22;12217;50.792;4.372;2022-09-01T10:41:08;27.80;87.90
24011;DHT22;12217;50.792;4.372;2022-09-01T10:48:55;28.00;85.60
24011;DHT22;12217;50.792;4.372;2022-09-01T10:53:57;28.20;85.20
24011;DHT22;12217;50.792;4.372;2022-09-01T10:56:45;28.50;85.10
24011;DHT22;12217;50.792;4.372;2022-09-01T11:04:22;28.80;81.60
24011;DHT22;12217;50.792;4.372;2022-09-01T11:07:30;28.90;82.70
24011;DHT22;12217;50.792;4.372;2022-09-01T11:20:32;29.40;77.00
24011;DHT22;12217;50.792;4.372;2022-09-01T11:23:29;29.50;74.30
24011;DHT22;12217;50.792;4.372;2022-09-01T11:26:00;29.20;73.40
24011;DHT22;12217;50.792;4.372;2022-09-01T11:28:38;29.00;74.60
24011;DHT22;12217;50.792;4.372;2022-09-01T11:36:43;29.50;74.30
24011;DHT22;12217;50.792;4.372;2022-09-01T11:44:59;29.90;71.90
24011;DHT22;12217;50.792;4.372;2022-09-01T11:47:47;30.10;72.30
24011;DHT22;12217;50.792;4.372;2022-09-01T11:50:35;29.70;68.40
24011;DHT22;12217;50.792;4.372;2022-09-01T11:53:13;29.70;70.80
24011;DHT22;12217;50.792;4.372;2022-09-01T11:55:43;29.80;70.50
24011;DHT22;12217;50.792;4.372;2022-09-01T11:58:11;30.20;69.70
24011;DHT22;12217;50.792;4.372;2022-09-01T12:00:40;30.40;67.70
24011;DHT22;12217;50.792;4.372;2022-09-01T12:03:23;30.40;66.30
24011;DHT22;12217;50.792;4.372;2022-09-01T12:06:01;30.10;65.90
24011;DHT22;12217;50.792;4.372;2022-09-01T12:08:31;30.00;68.40
24011;DHT22;12217;50.792;4.372;2022-09-01T12:11:24;30.40;67.50
24011;DHT22;12217;50.792;4.372;2022-09-01T12:14:03;30.60;67.20
24011;DHT22;12217;50.792;4.372;2022-09-01T12:16:30;30.90;66.40
24011;DHT22;12217;50.792;4.372;2022-09-01T12:18:58;30.90;64.80
24011;DHT22;12217;50.792;4.372;2022-09-01T12:21:38;31.00;65.10
24011;DHT22;12217;50.792;4.372;2022-09-01T12:24:19;31.10;64.70
24011;DHT22;12217;50.792;4.372;2022-09-01T12:26:48;30.70;62.60
24011;DHT22;12217;50.792;4.372;2022-09-01T12:29:16;30.80;64.10
24011;DHT22;12217;50.792;4.372;2022-09-01T12:31:44;30.80;64.60
24011;DHT22;12217;50.792;4.372;2022-09-01T12:37:23;30.40;64.20
24011;DHT22;12217;50.792;4.372;2022-09-01T12:39:55;30.30;63.50
24011;DHT22;12217;50.792;4.372;2022-09-01T12:42:29;30.60;64.60
24011;DHT22;12217;50.792;4.372;2022-09-01T12:45:06;30.70;65.20
24011;DHT22;12217;50.792;4.372;2022-09-01T12:49:58;31.00;63.60
24011;DHT22;12217;50.792;4.372;2022-09-01T12:52:28;31.20;63.10
24011;DHT22;12217;50.792;4.372;2022-09-01T12:57:40;31.70;64.30
24011;DHT22;12217;50.792;4.372;2022-09-01T13:00:20;31.70;62.20
24011;DHT22;12217;50.792;4.372;2022-09-01T13:03:15;31.70;61.20
24011;DHT22;12217;50.792;4.372;2022-09-01T13:05:50;31.60;61.00
24011;DHT22;12217;50.792;4.372;2022-09-01T13:08:19;31.70;62.30
24011;DHT22;12217;50.792;4.372;2022-09-01T13:13:28;31.20;61.50
24011;DHT22;12217;50.792;4.372;2022-09-01T13:15:56;31.20;62.20
24011;DHT22;12217;50.792;4.372;2022-09-01T13:18:24;30.70;60.70
24011;DHT22;12217;50.792;4.372;2022-09-01T13:20:51;30.40;62.60
24011;DHT22;12217;50.792;4.372;2022-09-01T13:23:18;30.40;62.30
24011;DHT22;12217;50.792;4.372;2022-09-01T13:25:44;30.40;62.60
24011;DHT22;12217;50.792;4.372;2022-09-01T13:28:11;30.70;63.40
24011;DHT22;12217;50.792;4.372;2022-09-01T13:30:38;30.80;63.40
24011;DHT22;12217;50.792;4.372;2022-09-01T13:33:04;30.80;61.60
24011;DHT22;12217;50.792;4.372;2022-09-01T13:35:30;31.10;62.50
24011;DHT22;12217;50.792;4.372;2022-09-01T13:37:56;31.20;59.80
24011;DHT22;12217;50.792;4.372;2022-09-01T13:40:22;31.40;62.40
24011;DHT22;12217;50.792;4.372;2022-09-01T13:42:51;31.60;60.70
24011;DHT22;12217;50.792;4.372;2022-09-01T13:45:20;31.90;59.70
24011;DHT22;12217;50.792;4.372;2022-09-01T13:47:47;31.90;60.60
24011;DHT22;12217;50.792;4.372;2022-09-01T13:50:18;31.60;58.70
24011;DHT22;12217;50.792;4.372;2022-09-01T13:52:47;31.50;59.80
24011;DHT22;12217;50.792;4.372;2022-09-01T13:55:16;31.50;58.60
24011;DHT22;12217;50.792;4.372;2022-09-01T13:57:42;31.30;59.20
24011;DHT22;12217;50.792;4.372;2022-09-01T14:00:15;31.10;59.80
24011;DHT22;12217;50.792;4.372;2022-09-01T14:02:52;31.20;59.50
24011;DHT22;12217;50.792;4.372;2022-09-01T14:05:23;31.70;59.70
24011;DHT22;12217;50.792;4.372;2022-09-01T14:07:50;31.80;59.10
24011;DHT22;12217;50.792;4.372;2022-09-01T14:10:17;31.90;59.40
24011;DHT22;12217;50.792;4.372;2022-09-01T14:12:44;31.80;59.10
24011;DHT22;12217;50.792;4.372;2022-09-01T14:15:11;31.90;58.30
24011;DHT22;12217;50.792;4.372;2022-09-01T14:17:38;31.80;58.60
24011;DHT22;12217;50.792;4.372;2022-09-01T14:20:06;31.40;57.50
24011;DHT22;12217;50.792;4.372;2022-09-01T14:22:33;31.30;58.40
24011;DHT22;12217;50.792;4.372;2022-09-01T14:24:59;31.60;59.20
24011;DHT22;12217;50.792;4.372;2022-09-01T14:27:25;31.70;57.60
24011;DHT22;12217;50.792;4.372;2022-09-01T14:29:52;31.70;58.50
24011;DHT22;12217;50.792;4.372;2022-09-01T14:32:18;31.80;58.90
24011;DHT22;12217;50.792;4.372;2022-09-01T14:34:47;31.90;57.00
24011;DHT22;12217;50.792;4.372;2022-09-01T14:37:14;31.80;56.60
24011;DHT22;12217;50.792;4.372;2022-09-01T14:39:41;31.90;56.70
24011;DHT22;12217;50.792;4.372;2022-09-01T14:42:06;31.90;57.20
24011;DHT22;12217;50.792;4.372;2022-09-01T14:44:37;32.10;57.10
24011;DHT22;12217;50.792;4.372;2022-09-01T14:47:03;31.90;56.20
24011;DHT22;12217;50.792;4.372;2022-09-01T14:49:31;31.80;57.50
24011;DHT22;12217;50.792;4.372;2022-09-01T14:52:01;31.90;56.00
24011;DHT22;12217;50.792;4.372;2022-09-01T14:54:29;32.00;56.50
24011;DHT22;12217;50.792;4.372;2022-09-01T14:56:55;31.90;54.20
24011;DHT22;12217;50.792;4.372;2022-09-01T14:59:21;31.50;54.50
24011;DHT22;12217;50.792;4.372;2022-09-01T15:01:47;31.20;55.10
24011;DHT22;12217;50.792;4.372;2022-09-01T15:04:13;30.80;56.60
24011;DHT22;12217;50.792;4.372;2022-09-01T15:06:39;30.90;55.90
24011;DHT22;12217;50.792;4.372;2022-09-01T15:09:05;30.50;55.30
24011;DHT22;12217;50.792;4.372;2022-09-01T15:11:30;30.40;55.10
24011;DHT22;12217;50.792;4.372;2022-09-01T15:13:56;30.60;57.20
24011;DHT22;12217;50.792;4.372;2022-09-01T15:16:24;31.00;56.90
24011;DHT22;12217;50.792;4.372;2022-09-01T15:18:50;31.20;56.80
24011;DHT22;12217;50.792;4.372;2022-09-01T15:21:29;31.30;56.00
24011;DHT22;12217;50.792;4.372;2022-09-01T15:24:01;31.30;55.60
24011;DHT22;12217;50.792;4.372;2022-09-01T15:26:28;31.40;56.60
24011;DHT22;12217;50.792;4.372;2022-09-01T15:28:54;31.50;55.60
24011;DHT22;12217;50.792;4.372;2022-09-01T15:31:22;31.40;55.00
24011;DHT22;12217;50.792;4.372;2022-09-01T15:33:49;31.30;54.70
24011;DHT22;12217;50.792;4.372;2022-09-01T15:36:20;31.20;55.70
24011;DHT22;12217;50.792;4.372;2022-09-01T15:38:46;31.20;54.60
24011;DHT22;12217;50.792;4.372;2022-09-01T15:41:28;31.00;53.90
24011;DHT22;12217;50.792;4.372;2022-09-01T15:43:55;31.10;54.90
24011;DHT22;12217;50.792;4.372;2022-09-01T15:46:22;31.10;54.60
24011;DHT22;12217;50.792;4.372;2022-09-01T15:48:47;30.70;53.60
24011;DHT22;12217;50.792;4.372;2022-09-01T15:51:31;30.70;54.50
24011;DHT22;12217;50.792;4.372;2022-09-01T15:54:17;30.90;55.60
24011;DHT22;12217;50.792;4.372;2022-09-01T15:56:44;30.80;55.50
24011;DHT22;12217;50.792;4.372;2022-09-01T15:59:11;30.40;54.30
24011;DHT22;12217;50.792;4.372;2022-09-01T16:01:43;30.30;54.20
24011;DHT22;12217;50.792;4.372;2022-09-01T16:04:14;30.40;53.60
24011;DHT22;12217;50.792;4.372;2022-09-01T16:06:41;30.40;54.70
24011;DHT22;12217;50.792;4.372;2022-09-01T16:09:08;30.40;54.60
24011;DHT22;12217;50.792;4.372;2022-09-01T16:11:34;30.40;55.00
24011;DHT22;12217;50.792;4.372;2022-09-01T16:14:01;30.40;54.10
24011;DHT22;12217;50.792;4.372;2022-09-01T16:19:31;30.40;53.50
24011;DHT22;12217;50.792;4.372;2022-09-01T16:24:49;30.00;54.30
24011;DHT22;12217;50.792;4.372;2022-09-01T16:27:18;29.90;54.60
24011;DHT22;12217;50.792;4.372;2022-09-01T16:32:14;30.00;54.40
24011;DHT22;12217;50.792;4.372;2022-09-01T16:34:42;29.90;54.30
24011;DHT22;12217;50.792;4.372;2022-09-01T16:42:42;29.40;55.10
24011;DHT22;12217;50.792;4.372;2022-09-01T16:45:39;29.30;55.10
24011;DHT22;12217;50.792;4.372;2022-09-01T17:04:47;28.90;55.80
24011;DHT22;12217;50.792;4.372;2022-09-01T17:07:20;28.70;55.00
24011;DHT22;12217;50.792;4.372;2022-09-01T17:18:11;28.40;56.60
24011;DHT22;12217;50.792;4.372;2022-09-01T17:20:42;28.30;57.00
24011;DHT22;12217;50.792;4.372;2022-09-01T17:23:14;28.10;57.30
24011;DHT22;12217;50.792;4.372;2022-09-01T17:25:54;28.10;57.40
24011;DHT22;12217;50.792;4.372;2022-09-01T17:29:09;28.00;57.90
24011;DHT22;12217;50.792;4.372;2022-09-01T17:34:18;27.90;58.30
24011;DHT22;12217;50.792;4.372;2022-09-01T17:37:06;27.90;58.00
24011;DHT22;12217;50.792;4.372;2022-09-01T17:47:45;27.50;59.60
24011;DHT22;12217;50.792;4.372;2022-09-01T18:04:18;26.90;63.20
24011;DHT22;12217;50.792;4.372;2022-09-01T18:07:39;26.80;63.80
24011;DHT22;12217;50.792;4.372;2022-09-01T18:09:50;26.70;64.40
24011;DHT22;12217;50.792;4.372;2022-09-01T18:12:22;26.60;65.50
24011;DHT22;12217;50.792;4.372;2022-09-01T18:15:07;26.50;66.00